createdAt,value
2022-10-19T00:02:30.639Z,98855.97
2022-10-19T00:07:34.504Z,98854.91
2022-10-19T00:12:37.759Z,98824.81
2022-10-19T00:17:40.645Z,98815.41
2022-10-19T00:22:43.268Z,98816.06
2022-10-19T00:27:46.139Z,98828.16
2022-10-19T00:32:49.355Z,98810.91
2022-10-19T00:37:52.207Z,98783.63
2022-10-19T00:42:56.467Z,98796.38
2022-10-19T00:47:59.044Z,98767.38
2022-10-19T00:53:01.615Z,98770.00
2022-10-19T00:58:04.608Z,98790.34
2022-10-19T01:03:08.717Z,98803.41
2022-10-19T01:08:12.463Z,98780.56
2022-10-19T01:13:26.588Z,98758.16
2022-10-19T01:18:55.378Z,98779.53
2022-10-19T01:24:27.499Z,98793.38
2022-10-19T01:29:29.877Z,98788.25
2022-10-19T01:34:51.694Z,98761.53
2022-10-19T01:40:20.338Z,98762.34
2022-10-19T01:45:28.813Z,98758.94
2022-10-19T01:50:41.095Z,98734.91
2022-10-19T01:55:49.017Z,98727.09
2022-10-19T02:00:54.198Z,98742.59
2022-10-19T02:05:58.457Z,98734.72
2022-10-19T02:11:02.228Z,98728.47
2022-10-19T02:16:13.760Z,98700.41
2022-10-19T02:21:16.726Z,98714.13
2022-10-19T02:26:20.811Z,98682.28
2022-10-19T02:31:24.869Z,98685.59
2022-10-19T02:36:27.574Z,98686.50
2022-10-19T02:41:30.077Z,98684.72
2022-10-19T02:52:01.954Z,98666.72
2022-10-19T02:57:19.910Z,98677.91
2022-10-19T03:02:22.544Z,98673.72
2022-10-19T03:07:25.654Z,98665.66
2022-10-19T03:12:28.371Z,98657.56
2022-10-19T03:17:31.108Z,98654.31
2022-10-19T03:22:33.791Z,98664.19
2022-10-19T03:27:36.558Z,98658.19
2022-10-19T03:32:39.363Z,98644.66
2022-10-19T03:37:42.141Z,98641.97
2022-10-19T03:42:44.730Z,98639.72
2022-10-19T03:47:50.724Z,98606.25
2022-10-19T03:52:55.603Z,98609.88
2022-10-19T03:57:58.279Z,98618.34
2022-10-19T04:03:00.848Z,98602.81
2022-10-19T04:08:03.493Z,98594.09
2022-10-19T04:13:06.086Z,98584.34
2022-10-19T04:18:08.685Z,98580.91
2022-10-19T04:23:11.313Z,98560.97
2022-10-19T04:28:13.959Z,98577.94
2022-10-19T04:33:16.576Z,98587.22
2022-10-19T04:38:19.142Z,98577.84
2022-10-19T04:43:22.240Z,98575.28
2022-10-19T04:48:24.857Z,98576.16
2022-10-19T04:53:28.155Z,98568.50
2022-10-19T04:58:30.689Z,98550.53
2022-10-19T05:03:33.253Z,98563.47
2022-10-19T05:08:37.765Z,98552.25
2022-10-19T05:13:40.816Z,98558.28
2022-10-19T05:18:56.355Z,98560.94
2022-10-19T05:23:59.199Z,98544.78
2022-10-19T05:29:02.779Z,98543.94
2022-10-19T05:34:05.510Z,98549.94
2022-10-19T05:39:14.916Z,98525.56
2022-10-19T05:44:20.214Z,98542.41
2022-10-19T05:49:23.201Z,98517.59
2022-10-19T05:54:27.790Z,98537.34
2022-10-19T05:59:31.361Z,98537.34
2022-10-19T06:04:34.079Z,98543.28
2022-10-19T06:09:37.264Z,98525.22
2022-10-19T06:14:39.965Z,98524.69
2022-10-19T06:19:42.707Z,98534.94
2022-10-19T06:24:45.265Z,98524.97
2022-10-19T06:29:48.244Z,98516.94
2022-10-19T06:34:54.264Z,98522.00
2022-10-19T06:40:01.467Z,98517.09
2022-10-19T06:45:08.622Z,98480.72
2022-10-19T06:50:11.273Z,98519.91
2022-10-19T06:55:13.965Z,98520.25
2022-10-19T07:00:17.226Z,98522.06
2022-10-19T07:05:20.024Z,98507.72
2022-10-19T07:10:22.655Z,98507.88
2022-10-19T07:15:25.311Z,98518.88
2022-10-19T07:20:28.057Z,98508.13
2022-10-19T07:25:30.922Z,98488.56
2022-10-19T07:30:33.621Z,98496.03
2022-10-19T07:35:36.969Z,98505.47
2022-10-19T07:40:43.559Z,98474.66
2022-10-19T07:45:49.065Z,98484.84
2022-10-19T07:50:51.670Z,98509.13
2022-10-19T07:55:54.333Z,98492.72
2022-10-19T08:01:01.553Z,98474.69
2022-10-19T08:06:10.006Z,98505.88
2022-10-19T08:11:24.534Z,98508.53
2022-10-19T08:16:40.420Z,98508.25
2022-10-19T08:21:45.724Z,98496.84
2022-10-19T08:26:51.304Z,98506.94
2022-10-19T08:31:54.874Z,98501.56
2022-10-19T08:36:57.414Z,98504.56
2022-10-19T08:42:15.276Z,98496.91
2022-10-19T08:47:38.152Z,98495.91
2022-10-19T08:52:43.396Z,98503.50
2022-10-19T08:58:04.080Z,98508.38
2022-10-19T09:03:37.811Z,98516.28
2022-10-19T09:08:55.901Z,98482.88
2022-10-19T09:14:08.356Z,98519.56
2022-10-19T09:19:32.003Z,98520.19
2022-10-19T09:24:53.429Z,98519.13
2022-10-19T09:30:03.882Z,98520.25
2022-10-19T09:35:18.697Z,98526.09
2022-10-19T09:40:27.516Z,98470.16
2022-10-19T09:45:51.098Z,98520.41
2022-10-19T09:51:00.141Z,98516.56
2022-10-19T09:56:08.328Z,98526.72
2022-10-19T10:01:41.477Z,98488.22
2022-10-19T10:06:48.412Z,98531.78
2022-10-19T10:17:19.621Z,98520.34
2022-10-19T10:22:33.577Z,98517.13
2022-10-19T10:27:38.553Z,98528.69
2022-10-19T10:32:49.336Z,98527.03
2022-10-19T10:37:53.013Z,98529.44
2022-10-19T10:43:02.538Z,98519.69
2022-10-19T10:48:33.454Z,98512.53
2022-10-19T10:53:43.541Z,98499.00
2022-10-19T10:59:01.097Z,98499.78
2022-10-19T11:04:09.107Z,98482.03
2022-10-19T11:09:36.718Z,98497.03
2022-10-19T11:14:44.979Z,98496.72
2022-10-19T11:19:50.328Z,98470.75
2022-10-19T11:25:15.178Z,98497.19
2022-10-19T11:30:23.064Z,98479.84
2022-10-19T11:35:53.199Z,98484.91
2022-10-19T11:41:18.207Z,98481.16
2022-10-19T11:46:46.153Z,98491.59
2022-10-19T11:51:58.099Z,98493.09
2022-10-19T11:57:11.478Z,98490.34
2022-10-19T12:02:38.612Z,98509.81
2022-10-19T12:13:52.597Z,98511.25
2022-10-19T12:19:00.749Z,98508.84
2022-10-19T12:24:11.538Z,98512.50
2022-10-19T12:29:25.729Z,98478.00
2022-10-19T12:34:37.448Z,98511.91
2022-10-19T12:39:58.112Z,98506.19
2022-10-19T12:45:25.420Z,98507.09
2022-10-19T12:51:04.839Z,98508.75
2022-10-19T12:56:19.785Z,98520.59
2022-10-19T13:01:42.784Z,98517.25
2022-10-19T13:06:50.184Z,98511.19
2022-10-19T13:12:21.974Z,98526.56
2022-10-19T13:17:50.699Z,98528.09
2022-10-19T13:22:59.524Z,98536.91
2022-10-19T13:28:07.923Z,98541.38
2022-10-19T13:33:25.625Z,98546.44
2022-10-19T13:38:42.219Z,98551.53
2022-10-19T13:44:01.256Z,98544.69
2022-10-19T13:49:22.118Z,98537.81
2022-10-19T13:54:33.597Z,98537.75
2022-10-19T13:59:56.395Z,98529.28
2022-10-19T14:05:25.082Z,98547.22
2022-10-19T14:10:32.831Z,98544.69
2022-10-19T14:15:51.529Z,98520.59
2022-10-19T14:21:03.494Z,98499.34
2022-10-19T14:26:20.797Z,98499.34
2022-10-19T14:31:29.041Z,98548.69
2022-10-19T14:36:37.363Z,98552.41
2022-10-19T14:41:39.940Z,98549.78
2022-10-19T14:46:48.165Z,98561.50
2022-10-19T14:52:02.397Z,98559.72
2022-10-19T14:57:29.248Z,98564.84
2022-10-19T15:02:44.420Z,98541.03
2022-10-19T15:07:47.648Z,98576.69
2022-10-19T15:12:52.020Z,98583.66
2022-10-19T15:18:03.323Z,98589.69
2022-10-19T15:23:45.686Z,98601.22
2022-10-19T15:28:48.720Z,98598.91
2022-10-19T15:33:59.630Z,98598.16
2022-10-19T15:39:18.405Z,98605.94
2022-10-19T15:44:42.493Z,98609.28
2022-10-19T15:49:45.798Z,98612.00
2022-10-19T15:54:53.653Z,98608.72
2022-10-19T15:59:57.693Z,98630.19
2022-10-19T16:05:00.578Z,98627.66
2022-10-19T16:10:03.669Z,98625.91
2022-10-19T16:15:07.176Z,98629.22
2022-10-19T16:20:10.901Z,98630.00
2022-10-19T16:25:14.566Z,98606.22
2022-10-19T16:30:17.197Z,98629.28
2022-10-19T16:35:19.896Z,98636.34
2022-10-19T16:40:24.594Z,98641.59
2022-10-19T16:45:28.581Z,98650.91
2022-10-19T16:50:31.200Z,98652.63
2022-10-19T16:55:33.864Z,98656.97
2022-10-19T17:00:36.456Z,98656.25
2022-10-19T17:05:39.362Z,98650.16
2022-10-19T17:10:41.927Z,98655.31
2022-10-19T17:15:44.521Z,98659.50
2022-10-19T17:20:47.060Z,98658.84
2022-10-19T17:25:49.641Z,98662.25
2022-10-19T17:30:52.904Z,98676.88
2022-10-19T17:35:55.455Z,98646.19
2022-10-19T17:41:02.866Z,98682.84
2022-10-19T17:46:07.359Z,98684.53
2022-10-19T17:51:18.819Z,98663.22
2022-10-19T17:56:22.413Z,98700.03
2022-10-19T18:01:26.472Z,98695.72
2022-10-19T18:06:31.714Z,98698.53
2022-10-19T18:11:38.749Z,98701.91
2022-10-19T18:16:45.632Z,98712.09
2022-10-19T18:21:49.231Z,98712.19
2022-10-19T18:26:52.244Z,98690.09
2022-10-19T18:31:55.404Z,98713.91
2022-10-19T18:36:58.094Z,98713.03
2022-10-19T18:42:00.770Z,98723.41
2022-10-19T18:47:03.353Z,98708.16
2022-10-19T18:52:06.079Z,98728.72
2022-10-19T18:57:08.820Z,98720.19
2022-10-19T19:02:17.262Z,98710.81
2022-10-19T19:07:25.571Z,98725.53
2022-10-19T19:12:28.185Z,98726.63
2022-10-19T19:17:30.800Z,98730.97
2022-10-19T19:22:33.875Z,98735.19
2022-10-19T19:27:36.654Z,98738.59
2022-10-19T19:32:39.266Z,98747.97
2022-10-19T19:37:41.900Z,98757.50
2022-10-19T19:42:44.630Z,98760.13
2022-10-19T19:47:47.198Z,98755.75
2022-10-19T19:52:50.918Z,98769.50
2022-10-19T19:57:54.580Z,98781.38
2022-10-19T20:02:58.760Z,98792.47
2022-10-19T20:08:01.330Z,98801.97
2022-10-19T20:18:11.494Z,98795.72
2022-10-19T20:23:14.292Z,98796.69
2022-10-19T20:28:17.369Z,98806.94
2022-10-19T20:33:19.982Z,98804.38
2022-10-19T20:38:22.641Z,98802.72
2022-10-19T20:43:25.224Z,98819.84
2022-10-19T20:48:27.768Z,98812.97
2022-10-19T20:53:30.340Z,98818.09
2022-10-19T20:58:33.765Z,98822.31
2022-10-19T21:03:36.479Z,98819.84
2022-10-19T21:08:39.109Z,98812.06
2022-10-19T21:13:42.047Z,98829.19
2022-10-19T21:18:46.533Z,98817.16
2022-10-19T21:23:54.042Z,98824.88
2022-10-19T21:28:57.250Z,98822.47
2022-10-19T21:34:03.554Z,98813.03
2022-10-19T21:39:06.554Z,98823.28
2022-10-19T21:44:09.281Z,98807.94
2022-10-19T21:49:12.387Z,98800.19
2022-10-19T21:54:20.608Z,98837.03
2022-10-19T21:59:23.232Z,98844.66
2022-10-19T22:04:26.108Z,98860.06
2022-10-19T22:09:29.008Z,98856.72
2022-10-19T22:14:31.595Z,98855.78
2022-10-19T22:19:34.226Z,98831.00
2022-10-19T22:24:36.908Z,98869.44
2022-10-19T22:29:39.540Z,98877.97
2022-10-19T22:34:42.099Z,98866.75
2022-10-19T22:39:44.732Z,98880.34
2022-10-19T22:44:47.277Z,98867.56
2022-10-19T22:49:49.923Z,98877.03
2022-10-19T22:54:52.510Z,98873.72
2022-10-19T22:59:55.085Z,98880.66
2022-10-19T23:04:57.668Z,98890.94
2022-10-19T23:10:00.271Z,98902.91
2022-10-19T23:15:03.025Z,98899.47
2022-10-19T23:20:06.400Z,98913.91
2022-10-19T23:25:09.489Z,98901.97
2022-10-19T23:30:12.107Z,98922.53
2022-10-19T23:35:14.740Z,98932.84
2022-10-19T23:40:17.381Z,98937.09
2022-10-19T23:45:20.007Z,98934.50
2022-10-19T23:50:22.633Z,98943.16
2022-10-19T23:55:25.298Z,98955.13
